To NAV CANADA Home Page Login to a new session Search on AWWS site Feedback and Comments Disclaimer Vers la page française équivalente Tips FAQ What's new on the site To the Forecasts and Observations / NOTAM section To "File a Flight Plan" website Publications and other links Update of the User's profile FIC Telephone Numbers My Weather Data Folder Route Weather Data Regional Weather Data Local Weather Data To the Forecasts and Observations / NOTAM section
Request Generated 04/29/2016 at 15:54:36 UTC . Weather information available at that time is displayed.

METAR/TAF

PRINCE ALBERT (GLASS FIELD)/SK    

METAR CYPA 291500Z 13005KT 110V170 15SM FEW250 10/M02 A3020 RMK CI2
SLP241=
METAR CYPA 291400Z 11005KT 15SM BKN250 07/M01 A3020 RMK CI6 SLP244=
METAR CYPA 291300Z 08006KT 15SM BKN250 02/M01 A3020 RMK CI6 SLP245=

TAF CYPA 291239Z 2913/3001 VRB03KT P6SM SCT250
BECMG 2914/2916 15008KT
RMK NXT FCST BY 291900Z=
Your time UTC time
Weather data provided by Environment Canada and NAV CANADA